sensor_id;sensor_type;location;lat;lon;timestamp;P1;durP1;ratioP1;P2;durP2;ratioP2
39518;SDS011;25200;53.394;10.414;2023-08-21T00:00:44;4.78;;;2.03;;
39518;SDS011;25200;53.394;10.414;2023-08-21T00:03:10;7.22;;;1.92;;
39518;SDS011;25200;53.394;10.414;2023-08-21T00:05:35;4.72;;;1.92;;
39518;SDS011;25200;53.394;10.414;2023-08-21T00:08:01;5.15;;;1.92;;
39518;SDS011;25200;53.394;10.414;2023-08-21T00:10:30;5.07;;;1.70;;
39518;SDS011;25200;53.394;10.414;2023-08-21T00:12:56;5.50;;;1.80;;
39518;SDS011;25200;53.394;10.414;2023-08-21T00:15:22;7.68;;;1.92;;
39518;SDS011;25200;53.394;10.414;2023-08-21T00:17:48;8.23;;;2.53;;
39518;SDS011;25200;53.394;10.414;2023-08-21T00:20:13;5.45;;;1.85;;
39518;SDS011;25200;53.394;10.414;2023-08-21T00:22:39;7.88;;;1.95;;
39518;SDS011;25200;53.394;10.414;2023-08-21T00:25:05;4.57;;;1.85;;
39518;SDS011;25200;53.394;10.414;2023-08-21T00:27:30;5.82;;;1.92;;
39518;SDS011;25200;53.394;10.414;2023-08-21T00:29:57;5.03;;;1.65;;
39518;SDS011;25200;53.394;10.414;2023-08-21T00:32:25;4.95;;;2.03;;
39518;SDS011;25200;53.394;10.414;2023-08-21T00:34:51;5.45;;;1.80;;
39518;SDS011;25200;53.394;10.414;2023-08-21T00:37:16;9.05;;;2.28;;
39518;SDS011;25200;53.394;10.414;2023-08-21T00:39:42;6.82;;;2.35;;
39518;SDS011;25200;53.394;10.414;2023-08-21T00:42:08;4.68;;;1.77;;
39518;SDS011;25200;53.394;10.414;2023-08-21T00:44:33;5.78;;;2.17;;
39518;SDS011;25200;53.394;10.414;2023-08-21T00:46:59;5.57;;;2.28;;
39518;SDS011;25200;53.394;10.414;2023-08-21T00:49:25;5.13;;;2.03;;
39518;SDS011;25200;53.394;10.414;2023-08-21T00:51:52;5.70;;;2.33;;
39518;SDS011;25200;53.394;10.414;2023-08-21T00:54:19;8.30;;;1.90;;
39518;SDS011;25200;53.394;10.414;2023-08-21T00:56:45;6.10;;;2.03;;
39518;SDS011;25200;53.394;10.414;2023-08-21T00:59:11;4.82;;;1.90;;
39518;SDS011;25200;53.394;10.414;2023-08-21T01:01:37;6.35;;;2.17;;
39518;SDS011;25200;53.394;10.414;2023-08-21T01:04:03;5.60;;;2.17;;
39518;SDS011;25200;53.394;10.414;2023-08-21T01:06:29;7.43;;;2.20;;
39518;SDS011;25200;53.394;10.414;2023-08-21T01:09:02;4.60;;;1.95;;
39518;SDS011;25200;53.394;10.414;2023-08-21T01:16:53;5.10;;;2.00;;
39518;SDS011;25200;53.394;10.414;2023-08-21T01:19:28;5.25;;;2.20;;
39518;SDS011;25200;53.394;10.414;2023-08-21T01:22:03;5.95;;;2.00;;
39518;SDS011;25200;53.394;10.414;2023-08-21T01:24:29;6.85;;;2.10;;
39518;SDS011;25200;53.394;10.414;2023-08-21T01:26:54;6.13;;;2.10;;
39518;SDS011;25200;53.394;10.414;2023-08-21T01:29:20;8.95;;;2.30;;
39518;SDS011;25200;53.394;10.414;2023-08-21T01:31:48;7.18;;;2.33;;
39518;SDS011;25200;53.394;10.414;2023-08-21T01:34:21;6.30;;;2.30;;
39518;SDS011;25200;53.394;10.414;2023-08-21T01:36:48;8.35;;;2.42;;
39518;SDS011;25200;53.394;10.414;2023-08-21T01:39:14;8.45;;;2.65;;
39518;SDS011;25200;53.394;10.414;2023-08-21T01:41:40;8.20;;;2.50;;
39518;SDS011;25200;53.394;10.414;2023-08-21T01:44:07;8.18;;;2.83;;
39518;SDS011;25200;53.394;10.414;2023-08-21T01:46:32;6.25;;;2.67;;
39518;SDS011;25200;53.394;10.414;2023-08-21T01:48:58;6.35;;;3.08;;
39518;SDS011;25200;53.394;10.414;2023-08-21T01:51:24;7.47;;;3.17;;
39518;SDS011;25200;53.394;10.414;2023-08-21T01:53:50;12.30;;;4.05;;
39518;SDS011;25200;53.394;10.414;2023-08-21T01:56:15;14.10;;;4.32;;
39518;SDS011;25200;53.394;10.414;2023-08-21T01:58:41;9.80;;;3.95;;
39518;SDS011;25200;53.394;10.414;2023-08-21T02:01:06;9.25;;;4.30;;
39518;SDS011;25200;53.394;10.414;2023-08-21T02:03:32;8.35;;;4.38;;
39518;SDS011;25200;53.394;10.414;2023-08-21T02:05:58;8.30;;;4.68;;
39518;SDS011;25200;53.394;10.414;2023-08-21T02:08:25;8.48;;;4.55;;
39518;SDS011;25200;53.394;10.414;2023-08-21T02:10:57;10.65;;;4.40;;
39518;SDS011;25200;53.394;10.414;2023-08-21T02:13:23;7.50;;;4.03;;
39518;SDS011;25200;53.394;10.414;2023-08-21T02:15:48;8.40;;;4.50;;
39518;SDS011;25200;53.394;10.414;2023-08-21T02:18:14;10.52;;;4.45;;
39518;SDS011;25200;53.394;10.414;2023-08-21T02:20:40;7.95;;;4.32;;
39518;SDS011;25200;53.394;10.414;2023-08-21T02:23:06;9.05;;;4.90;;
39518;SDS011;25200;53.394;10.414;2023-08-21T02:25:32;10.77;;;4.70;;
39518;SDS011;25200;53.394;10.414;2023-08-21T02:27:57;7.55;;;4.53;;
39518;SDS011;25200;53.394;10.414;2023-08-21T02:30:23;7.32;;;4.85;;
39518;SDS011;25200;53.394;10.414;2023-08-21T02:32:52;9.20;;;4.93;;
39518;SDS011;25200;53.394;10.414;2023-08-21T02:35:19;9.18;;;4.53;;
39518;SDS011;25200;53.394;10.414;2023-08-21T02:37:45;9.05;;;4.90;;
39518;SDS011;25200;53.394;10.414;2023-08-21T02:40:11;7.80;;;4.97;;
39518;SDS011;25200;53.394;10.414;2023-08-21T02:42:36;10.23;;;4.95;;
39518;SDS011;25200;53.394;10.414;2023-08-21T02:45:02;8.38;;;4.53;;
39518;SDS011;25200;53.394;10.414;2023-08-21T02:47:33;8.15;;;4.90;;
39518;SDS011;25200;53.394;10.414;2023-08-21T02:50:00;8.32;;;4.90;;
39518;SDS011;25200;53.394;10.414;2023-08-21T02:52:27;7.80;;;4.35;;
39518;SDS011;25200;53.394;10.414;2023-08-21T02:54:52;9.60;;;5.15;;
39518;SDS011;25200;53.394;10.414;2023-08-21T02:57:18;9.13;;;4.35;;
39518;SDS011;25200;53.394;10.414;2023-08-21T02:59:44;9.57;;;4.97;;
39518;SDS011;25200;53.394;10.414;2023-08-21T03:02:09;9.45;;;4.78;;
39518;SDS011;25200;53.394;10.414;2023-08-21T03:04:35;9.98;;;5.07;;
39518;SDS011;25200;53.394;10.414;2023-08-21T03:07:00;10.07;;;5.85;;
39518;SDS011;25200;53.394;10.414;2023-08-21T03:09:26;11.27;;;5.60;;
39518;SDS011;25200;53.394;10.414;2023-08-21T03:11:52;13.00;;;6.22;;
39518;SDS011;25200;53.394;10.414;2023-08-21T03:14:17;8.73;;;5.57;;
39518;SDS011;25200;53.394;10.414;2023-08-21T03:16:43;13.70;;;6.07;;
39518;SDS011;25200;53.394;10.414;2023-08-21T03:19:08;10.43;;;6.10;;
39518;SDS011;25200;53.394;10.414;2023-08-21T03:21:34;14.18;;;6.47;;
39518;SDS011;25200;53.394;10.414;2023-08-21T03:24:00;12.38;;;6.32;;
39518;SDS011;25200;53.394;10.414;2023-08-21T03:26:26;11.93;;;7.05;;
39518;SDS011;25200;53.394;10.414;2023-08-21T03:28:52;15.15;;;7.40;;
39518;SDS011;25200;53.394;10.414;2023-08-21T03:31:17;16.30;;;7.65;;
39518;SDS011;25200;53.394;10.414;2023-08-21T03:33:43;15.43;;;7.65;;
39518;SDS011;25200;53.394;10.414;2023-08-21T03:36:09;16.08;;;8.07;;
39518;SDS011;25200;53.394;10.414;2023-08-21T03:38:35;12.05;;;7.50;;
39518;SDS011;25200;53.394;10.414;2023-08-21T03:41:00;12.15;;;7.60;;
39518;SDS011;25200;53.394;10.414;2023-08-21T03:43:26;13.70;;;7.57;;
39518;SDS011;25200;53.394;10.414;2023-08-21T03:45:52;12.90;;;7.72;;
39518;SDS011;25200;53.394;10.414;2023-08-21T03:48:18;12.43;;;7.95;;
39518;SDS011;25200;53.394;10.414;2023-08-21T03:50:44;12.15;;;7.60;;
39518;SDS011;25200;53.394;10.414;2023-08-21T03:53:09;12.15;;;7.03;;
39518;SDS011;25200;53.394;10.414;2023-08-21T03:55:35;13.32;;;7.28;;
39518;SDS011;25200;53.394;10.414;2023-08-21T03:58:00;11.38;;;6.80;;
39518;SDS011;25200;53.394;10.414;2023-08-21T04:00:26;13.35;;;7.20;;
39518;SDS011;25200;53.394;10.414;2023-08-21T04:02:52;12.10;;;6.07;;
39518;SDS011;25200;53.394;10.414;2023-08-21T04:05:17;14.05;;;6.78;;
39518;SDS011;25200;53.394;10.414;2023-08-21T04:07:43;10.98;;;6.65;;
39518;SDS011;25200;53.394;10.414;2023-08-21T04:10:09;10.98;;;6.05;;
39518;SDS011;25200;53.394;10.414;2023-08-21T04:12:34;12.25;;;5.63;;
39518;SDS011;25200;53.394;10.414;2023-08-21T04:15:00;10.18;;;5.72;;
39518;SDS011;25200;53.394;10.414;2023-08-21T04:17:26;10.75;;;6.22;;
39518;SDS011;25200;53.394;10.414;2023-08-21T04:19:51;11.63;;;6.65;;
39518;SDS011;25200;53.394;10.414;2023-08-21T04:22:17;11.77;;;6.60;;
39518;SDS011;25200;53.394;10.414;2023-08-21T04:24:43;12.30;;;7.60;;
39518;SDS011;25200;53.394;10.414;2023-08-21T04:27:09;10.68;;;6.78;;
39518;SDS011;25200;53.394;10.414;2023-08-21T04:29:35;13.57;;;7.10;;
39518;SDS011;25200;53.394;10.414;2023-08-21T04:32:01;11.93;;;6.57;;
39518;SDS011;25200;53.394;10.414;2023-08-21T04:34:27;9.90;;;6.28;;
39518;SDS011;25200;53.394;10.414;2023-08-21T04:36:52;12.50;;;6.45;;
39518;SDS011;25200;53.394;10.414;2023-08-21T04:39:18;10.90;;;6.55;;
39518;SDS011;25200;53.394;10.414;2023-08-21T04:41:44;10.80;;;7.07;;
39518;SDS011;25200;53.394;10.414;2023-08-21T04:44:09;9.75;;;6.35;;
39518;SDS011;25200;53.394;10.414;2023-08-21T04:46:36;9.00;;;5.97;;
39518;SDS011;25200;53.394;10.414;2023-08-21T04:49:01;9.35;;;5.88;;
39518;SDS011;25200;53.394;10.414;2023-08-21T04:51:27;9.98;;;6.18;;
39518;SDS011;25200;53.394;10.414;2023-08-21T04:53:53;9.07;;;5.63;;
39518;SDS011;25200;53.394;10.414;2023-08-21T04:56:18;8.82;;;5.95;;
39518;SDS011;25200;53.394;10.414;2023-08-21T04:58:44;8.27;;;5.50;;
39518;SDS011;25200;53.394;10.414;2023-08-21T05:01:10;7.15;;;4.95;;
39518;SDS011;25200;53.394;10.414;2023-08-21T05:03:35;8.50;;;5.80;;
39518;SDS011;25200;53.394;10.414;2023-08-21T05:06:01;7.57;;;5.68;;
39518;SDS011;25200;53.394;10.414;2023-08-21T05:08:27;7.93;;;5.40;;
39518;SDS011;25200;53.394;10.414;2023-08-21T05:10:59;8.90;;;5.25;;
39518;SDS011;25200;53.394;10.414;2023-08-21T05:13:26;10.45;;;6.25;;
39518;SDS011;25200;53.394;10.414;2023-08-21T05:15:52;9.35;;;5.43;;
39518;SDS011;25200;53.394;10.414;2023-08-21T05:18:22;6.75;;;4.68;;
39518;SDS011;25200;53.394;10.414;2023-08-21T05:20:49;7.82;;;5.25;;
39518;SDS011;25200;53.394;10.414;2023-08-21T05:23:15;8.95;;;6.20;;
39518;SDS011;25200;53.394;10.414;2023-08-21T05:25:42;8.50;;;5.70;;
39518;SDS011;25200;53.394;10.414;2023-08-21T05:28:09;8.40;;;5.93;;
39518;SDS011;25200;53.394;10.414;2023-08-21T05:30:37;9.25;;;6.38;;
39518;SDS011;25200;53.394;10.414;2023-08-21T05:33:03;9.25;;;5.57;;
39518;SDS011;25200;53.394;10.414;2023-08-21T05:35:32;8.90;;;5.70;;
39518;SDS011;25200;53.394;10.414;2023-08-21T05:37:59;8.95;;;5.40;;
39518;SDS011;25200;53.394;10.414;2023-08-21T05:40:25;8.55;;;5.43;;
39518;SDS011;25200;53.394;10.414;2023-08-21T05:42:50;8.80;;;5.45;;
39518;SDS011;25200;53.394;10.414;2023-08-21T05:45:16;7.43;;;4.75;;
39518;SDS011;25200;53.394;10.414;2023-08-21T05:47:41;8.35;;;5.18;;
39518;SDS011;25200;53.394;10.414;2023-08-21T05:50:07;9.52;;;4.72;;
39518;SDS011;25200;53.394;10.414;2023-08-21T05:52:34;8.35;;;4.57;;
39518;SDS011;25200;53.394;10.414;2023-08-21T05:54:59;9.85;;;4.82;;
39518;SDS011;25200;53.394;10.414;2023-08-21T05:57:25;9.90;;;4.88;;
39518;SDS011;25200;53.394;10.414;2023-08-21T05:59:50;8.82;;;5.03;;
39518;SDS011;25200;53.394;10.414;2023-08-21T06:02:16;6.60;;;3.75;;
39518;SDS011;25200;53.394;10.414;2023-08-21T06:04:42;8.35;;;4.55;;
39518;SDS011;25200;53.394;10.414;2023-08-21T06:07:08;10.18;;;4.07;;
39518;SDS011;25200;53.394;10.414;2023-08-21T06:09:34;8.90;;;4.78;;
39518;SDS011;25200;53.394;10.414;2023-08-21T06:12:01;6.70;;;3.88;;
39518;SDS011;25200;53.394;10.414;2023-08-21T06:14:27;7.68;;;3.90;;
39518;SDS011;25200;53.394;10.414;2023-08-21T06:19:24;12.90;;;5.78;;
39518;SDS011;25200;53.394;10.414;2023-08-21T06:21:49;13.43;;;5.50;;
39518;SDS011;25200;53.394;10.414;2023-08-21T06:24:15;7.78;;;4.80;;
39518;SDS011;25200;53.394;10.414;2023-08-21T06:26:41;9.73;;;4.07;;
39518;SDS011;25200;53.394;10.414;2023-08-21T06:29:07;13.52;;;5.90;;
39518;SDS011;25200;53.394;10.414;2023-08-21T06:31:33;11.23;;;5.45;;
39518;SDS011;25200;53.394;10.414;2023-08-21T06:33:58;10.07;;;5.45;;
39518;SDS011;25200;53.394;10.414;2023-08-21T06:36:24;9.88;;;5.47;;
39518;SDS011;25200;53.394;10.414;2023-08-21T06:38:50;9.27;;;5.50;;
39518;SDS011;25200;53.394;10.414;2023-08-21T06:41:15;7.40;;;4.60;;
39518;SDS011;25200;53.394;10.414;2023-08-21T06:43:41;12.55;;;5.10;;
39518;SDS011;25200;53.394;10.414;2023-08-21T06:46:07;13.43;;;5.80;;
39518;SDS011;25200;53.394;10.414;2023-08-21T06:48:34;8.38;;;4.60;;
39518;SDS011;25200;53.394;10.414;2023-08-21T06:51:01;13.48;;;5.10;;
39518;SDS011;25200;53.394;10.414;2023-08-21T06:53:27;10.05;;;4.68;;
39518;SDS011;25200;53.394;10.414;2023-08-21T06:55:53;12.00;;;5.05;;
39518;SDS011;25200;53.394;10.414;2023-08-21T06:58:19;10.65;;;4.82;;
39518;SDS011;25200;53.394;10.414;2023-08-21T07:00:45;14.13;;;5.90;;
39518;SDS011;25200;53.394;10.414;2023-08-21T07:03:11;14.82;;;6.30;;
39518;SDS011;25200;53.394;10.414;2023-08-21T07:05:37;10.93;;;5.22;;
39518;SDS011;25200;53.394;10.414;2023-08-21T07:08:03;9.05;;;4.80;;
39518;SDS011;25200;53.394;10.414;2023-08-21T07:10:29;9.35;;;4.15;;
39518;SDS011;25200;53.394;10.414;2023-08-21T07:12:54;10.77;;;3.60;;
39518;SDS011;25200;53.394;10.414;2023-08-21T07:15:20;10.07;;;3.70;;
39518;SDS011;25200;53.394;10.414;2023-08-21T07:17:46;8.90;;;3.67;;
39518;SDS011;25200;53.394;10.414;2023-08-21T07:20:12;13.48;;;4.22;;
39518;SDS011;25200;53.394;10.414;2023-08-21T07:22:38;8.55;;;3.38;;
39518;SDS011;25200;53.394;10.414;2023-08-21T07:25:04;18.73;;;3.90;;
39518;SDS011;25200;53.394;10.414;2023-08-21T07:27:30;12.93;;;3.15;;
39518;SDS011;25200;53.394;10.414;2023-08-21T07:29:56;6.95;;;2.50;;
39518;SDS011;25200;53.394;10.414;2023-08-21T07:32:22;9.48;;;2.90;;
39518;SDS011;25200;53.394;10.414;2023-08-21T07:34:51;12.27;;;3.35;;
39518;SDS011;25200;53.394;10.414;2023-08-21T07:37:19;10.32;;;2.65;;
39518;SDS011;25200;53.394;10.414;2023-08-21T07:39:45;8.23;;;2.45;;
39518;SDS011;25200;53.394;10.414;2023-08-21T07:42:11;11.70;;;2.92;;
39518;SDS011;25200;53.394;10.414;2023-08-21T07:44:38;12.45;;;3.15;;
39518;SDS011;25200;53.394;10.414;2023-08-21T07:47:05;8.20;;;2.30;;
39518;SDS011;25200;53.394;10.414;2023-08-21T07:49:31;7.97;;;2.80;;
39518;SDS011;25200;53.394;10.414;2023-08-21T07:51:57;10.50;;;2.85;;
39518;SDS011;25200;53.394;10.414;2023-08-21T07:54:23;13.23;;;3.05;;
39518;SDS011;25200;53.394;10.414;2023-08-21T07:56:49;9.20;;;2.90;;
39518;SDS011;25200;53.394;10.414;2023-08-21T07:59:15;9.02;;;2.83;;
39518;SDS011;25200;53.394;10.414;2023-08-21T08:01:41;11.82;;;2.88;;
39518;SDS011;25200;53.394;10.414;2023-08-21T08:04:07;11.43;;;3.05;;
39518;SDS011;25200;53.394;10.414;2023-08-21T08:06:33;13.50;;;3.13;;
39518;SDS011;25200;53.394;10.414;2023-08-21T08:08:59;6.65;;;2.80;;
39518;SDS011;25200;53.394;10.414;2023-08-21T08:11:25;8.52;;;2.63;;
39518;SDS011;25200;53.394;10.414;2023-08-21T08:13:51;11.48;;;2.67;;
39518;SDS011;25200;53.394;10.414;2023-08-21T08:16:16;6.28;;;2.25;;
39518;SDS011;25200;53.394;10.414;2023-08-21T08:18:42;8.85;;;2.00;;
39518;SDS011;25200;53.394;10.414;2023-08-21T08:21:08;7.97;;;2.35;;
39518;SDS011;25200;53.394;10.414;2023-08-21T08:23:35;12.73;;;2.60;;
39518;SDS011;25200;53.394;10.414;2023-08-21T08:26:00;11.80;;;2.28;;
39518;SDS011;25200;53.394;10.414;2023-08-21T08:28:27;8.13;;;2.20;;
39518;SDS011;25200;53.394;10.414;2023-08-21T08:30:53;9.48;;;2.22;;
39518;SDS011;25200;53.394;10.414;2023-08-21T08:33:19;10.85;;;2.47;;
39518;SDS011;25200;53.394;10.414;2023-08-21T08:35:45;10.25;;;2.25;;
39518;SDS011;25200;53.394;10.414;2023-08-21T08:38:10;7.50;;;2.00;;
39518;SDS011;25200;53.394;10.414;2023-08-21T08:40:37;7.07;;;1.83;;
39518;SDS011;25200;53.394;10.414;2023-08-21T08:45:40;7.07;;;1.90;;
39518;SDS011;25200;53.394;10.414;2023-08-21T08:48:07;9.55;;;2.10;;
39518;SDS011;25200;53.394;10.414;2023-08-21T08:50:33;12.57;;;2.40;;
39518;SDS011;25200;53.394;10.414;2023-08-21T08:53:00;5.68;;;2.00;;
39518;SDS011;25200;53.394;10.414;2023-08-21T08:55:27;8.98;;;2.00;;
39518;SDS011;25200;53.394;10.414;2023-08-21T08:57:52;8.35;;;2.10;;
39518;SDS011;25200;53.394;10.414;2023-08-21T09:00:19;6.55;;;1.77;;
39518;SDS011;25200;53.394;10.414;2023-08-21T09:02:46;6.68;;;1.90;;
39518;SDS011;25200;53.394;10.414;2023-08-21T09:05:12;9.07;;;2.10;;
39518;SDS011;25200;53.394;10.414;2023-08-21T09:07:38;8.80;;;1.70;;
39518;SDS011;25200;53.394;10.414;2023-08-21T09:10:04;7.78;;;1.75;;
39518;SDS011;25200;53.394;10.414;2023-08-21T09:12:33;6.78;;;1.60;;
39518;SDS011;25200;53.394;10.414;2023-08-21T09:14:58;6.78;;;1.75;;
39518;SDS011;25200;53.394;10.414;2023-08-21T09:17:26;7.55;;;1.33;;
39518;SDS011;25200;53.394;10.414;2023-08-21T09:19:51;5.70;;;1.70;;
39518;SDS011;25200;53.394;10.414;2023-08-21T09:22:18;5.38;;;1.40;;
39518;SDS011;25200;53.394;10.414;2023-08-21T09:25:00;6.57;;;1.80;;
39518;SDS011;25200;53.394;10.414;2023-08-21T09:27:31;5.38;;;1.50;;
39518;SDS011;25200;53.394;10.414;2023-08-21T09:29:58;8.50;;;1.63;;
39518;SDS011;25200;53.394;10.414;2023-08-21T09:32:25;5.00;;;1.38;;
39518;SDS011;25200;53.394;10.414;2023-08-21T09:34:51;4.75;;;1.38;;
39518;SDS011;25200;53.394;10.414;2023-08-21T09:37:17;8.13;;;1.70;;
39518;SDS011;25200;53.394;10.414;2023-08-21T09:39:42;4.78;;;1.40;;
39518;SDS011;25200;53.394;10.414;2023-08-21T09:42:09;6.93;;;1.60;;
39518;SDS011;25200;53.394;10.414;2023-08-21T09:44:39;3.58;;;1.10;;
39518;SDS011;25200;53.394;10.414;2023-08-21T09:47:08;7.55;;;2.00;;
39518;SDS011;25200;53.394;10.414;2023-08-21T09:49:35;5.82;;;1.40;;
39518;SDS011;25200;53.394;10.414;2023-08-21T09:52:03;4.90;;;1.35;;
39518;SDS011;25200;53.394;10.414;2023-08-21T09:54:35;3.95;;;1.27;;
39518;SDS011;25200;53.394;10.414;2023-08-21T09:57:03;4.75;;;1.40;;
39518;SDS011;25200;53.394;10.414;2023-08-21T09:59:30;4.95;;;1.27;;
39518;SDS011;25200;53.394;10.414;2023-08-21T10:01:56;5.20;;;1.35;;
39518;SDS011;25200;53.394;10.414;2023-08-21T10:04:25;4.80;;;1.50;;
39518;SDS011;25200;53.394;10.414;2023-08-21T10:06:52;4.57;;;1.60;;
39518;SDS011;25200;53.394;10.414;2023-08-21T10:09:20;5.43;;;1.45;;
39518;SDS011;25200;53.394;10.414;2023-08-21T10:11:48;2.38;;;1.02;;
39518;SDS011;25200;53.394;10.414;2023-08-21T10:14:14;3.83;;;0.95;;
39518;SDS011;25200;53.394;10.414;2023-08-21T10:16:41;5.53;;;1.38;;
39518;SDS011;25200;53.394;10.414;2023-08-21T10:19:07;10.57;;;1.70;;
39518;SDS011;25200;53.394;10.414;2023-08-21T10:21:35;3.47;;;1.02;;
39518;SDS011;25200;53.394;10.414;2023-08-21T10:24:02;3.42;;;0.85;;
39518;SDS011;25200;53.394;10.414;2023-08-21T10:26:28;5.53;;;1.20;;
39518;SDS011;25200;53.394;10.414;2023-08-21T10:28:55;4.60;;;1.05;;
39518;SDS011;25200;53.394;10.414;2023-08-21T10:31:40;3.08;;;0.98;;
39518;SDS011;25200;53.394;10.414;2023-08-21T10:34:11;3.35;;;0.88;;
39518;SDS011;25200;53.394;10.414;2023-08-21T10:39:25;3.80;;;1.20;;
39518;SDS011;25200;53.394;10.414;2023-08-21T10:41:59;5.82;;;1.30;;
39518;SDS011;25200;53.394;10.414;2023-08-21T10:44:35;2.60;;;0.88;;
39518;SDS011;25200;53.394;10.414;2023-08-21T10:49:53;2.60;;;1.08;;
39518;SDS011;25200;53.394;10.414;2023-08-21T10:52:22;3.63;;;1.20;;
39518;SDS011;25200;53.394;10.414;2023-08-21T10:54:50;3.95;;;1.23;;
39518;SDS011;25200;53.394;10.414;2023-08-21T10:57:17;3.17;;;1.02;;
39518;SDS011;25200;53.394;10.414;2023-08-21T11:02:20;4.55;;;1.20;;
39518;SDS011;25200;53.394;10.414;2023-08-21T11:04:46;2.75;;;0.88;;
39518;SDS011;25200;53.394;10.414;2023-08-21T11:07:12;2.25;;;0.65;;
39518;SDS011;25200;53.394;10.414;2023-08-21T11:09:38;1.85;;;0.80;;
39518;SDS011;25200;53.394;10.414;2023-08-21T11:12:08;1.80;;;0.77;;
39518;SDS011;25200;53.394;10.414;2023-08-21T11:14:34;2.53;;;0.80;;
39518;SDS011;25200;53.394;10.414;2023-08-21T11:17:00;2.10;;;0.80;;
39518;SDS011;25200;53.394;10.414;2023-08-21T11:19:26;3.30;;;1.02;;
39518;SDS011;25200;53.394;10.414;2023-08-21T11:21:52;4.07;;;1.02;;
39518;SDS011;25200;53.394;10.414;2023-08-21T11:24:17;2.33;;;1.08;;
39518;SDS011;25200;53.394;10.414;2023-08-21T11:26:43;5.30;;;1.10;;
39518;SDS011;25200;53.394;10.414;2023-08-21T11:29:09;3.28;;;0.98;;
39518;SDS011;25200;53.394;10.414;2023-08-21T11:31:34;3.83;;;1.00;;
39518;SDS011;25200;53.394;10.414;2023-08-21T11:34:00;3.72;;;1.08;;
39518;SDS011;25200;53.394;10.414;2023-08-21T11:36:26;3.72;;;1.00;;
39518;SDS011;25200;53.394;10.414;2023-08-21T11:38:58;2.78;;;0.88;;
39518;SDS011;25200;53.394;10.414;2023-08-21T11:41:25;4.28;;;1.10;;
39518;SDS011;25200;53.394;10.414;2023-08-21T11:43:50;3.17;;;0.95;;
39518;SDS011;25200;53.394;10.414;2023-08-21T11:46:17;2.15;;;0.88;;
39518;SDS011;25200;53.394;10.414;2023-08-21T11:48:44;4.55;;;0.90;;
39518;SDS011;25200;53.394;10.414;2023-08-21T11:51:10;5.43;;;1.38;;
39518;SDS011;25200;53.394;10.414;2023-08-21T11:53:37;4.25;;;1.15;;
39518;SDS011;25200;53.394;10.414;2023-08-21T11:56:11;3.17;;;1.08;;
39518;SDS011;25200;53.394;10.414;2023-08-21T11:58:41;2.58;;;0.85;;
39518;SDS011;25200;53.394;10.414;2023-08-21T12:01:07;2.90;;;1.10;;
39518;SDS011;25200;53.394;10.414;2023-08-21T12:03:37;4.60;;;1.00;;
39518;SDS011;25200;53.394;10.414;2023-08-21T12:06:08;2.90;;;1.00;;
39518;SDS011;25200;53.394;10.414;2023-08-21T12:08:34;4.30;;;1.23;;
39518;SDS011;25200;53.394;10.414;2023-08-21T12:11:00;3.47;;;1.15;;
39518;SDS011;25200;53.394;10.414;2023-08-21T12:13:26;6.18;;;1.50;;
39518;SDS011;25200;53.394;10.414;2023-08-21T12:15:52;3.72;;;1.25;;
39518;SDS011;25200;53.394;10.414;2023-08-21T12:18:18;2.67;;;1.17;;
39518;SDS011;25200;53.394;10.414;2023-08-21T12:20:44;2.92;;;1.20;;
39518;SDS011;25200;53.394;10.414;2023-08-21T12:23:09;4.07;;;1.17;;
39518;SDS011;25200;53.394;10.414;2023-08-21T12:25:35;3.67;;;1.40;;
39518;SDS011;25200;53.394;10.414;2023-08-21T12:28:00;2.55;;;1.17;;
39518;SDS011;25200;53.394;10.414;2023-08-21T12:30:26;4.82;;;1.40;;
39518;SDS011;25200;53.394;10.414;2023-08-21T12:32:52;4.95;;;1.27;;
39518;SDS011;25200;53.394;10.414;2023-08-21T12:35:17;3.45;;;1.33;;
39518;SDS011;25200;53.394;10.414;2023-08-21T12:37:43;3.97;;;1.40;;
39518;SDS011;25200;53.394;10.414;2023-08-21T12:40:09;4.07;;;1.45;;
39518;SDS011;25200;53.394;10.414;2023-08-21T12:42:34;6.90;;;1.40;;
39518;SDS011;25200;53.394;10.414;2023-08-21T12:45:00;4.88;;;1.38;;
39518;SDS011;25200;53.394;10.414;2023-08-21T12:47:26;3.95;;;1.30;;
39518;SDS011;25200;53.394;10.414;2023-08-21T12:49:51;5.28;;;1.40;;
39518;SDS011;25200;53.394;10.414;2023-08-21T12:52:17;4.25;;;1.30;;
39518;SDS011;25200;53.394;10.414;2023-08-21T12:54:43;3.83;;;1.42;;
39518;SDS011;25200;53.394;10.414;2023-08-21T12:57:09;4.35;;;1.40;;
39518;SDS011;25200;53.394;10.414;2023-08-21T12:59:36;5.90;;;1.50;;
39518;SDS011;25200;53.394;10.414;2023-08-21T13:02:02;3.90;;;1.33;;
39518;SDS011;25200;53.394;10.414;2023-08-21T13:04:28;5.78;;;1.50;;
39518;SDS011;25200;53.394;10.414;2023-08-21T13:06:54;3.67;;;1.35;;
39518;SDS011;25200;53.394;10.414;2023-08-21T13:09:20;2.90;;;1.23;;
39518;SDS011;25200;53.394;10.414;2023-08-21T13:11:46;2.83;;;1.08;;
39518;SDS011;25200;53.394;10.414;2023-08-21T13:14:12;5.47;;;1.55;;
39518;SDS011;25200;53.394;10.414;2023-08-21T13:16:37;6.75;;;1.50;;
39518;SDS011;25200;53.394;10.414;2023-08-21T13:19:03;4.38;;;1.48;;
39518;SDS011;25200;53.394;10.414;2023-08-21T13:21:28;8.27;;;1.60;;
39518;SDS011;25200;53.394;10.414;2023-08-21T13:23:55;4.03;;;1.45;;
39518;SDS011;25200;53.394;10.414;2023-08-21T13:26:20;3.22;;;1.30;;
39518;SDS011;25200;53.394;10.414;2023-08-21T13:28:46;6.13;;;1.50;;
39518;SDS011;25200;53.394;10.414;2023-08-21T13:31:12;4.30;;;1.35;;
39518;SDS011;25200;53.394;10.414;2023-08-21T13:33:44;2.97;;;1.20;;
39518;SDS011;25200;53.394;10.414;2023-08-21T13:36:10;6.10;;;1.20;;
39518;SDS011;25200;53.394;10.414;2023-08-21T13:38:36;4.80;;;1.55;;
39518;SDS011;25200;53.394;10.414;2023-08-21T13:41:02;4.07;;;1.48;;
39518;SDS011;25200;53.394;10.414;2023-08-21T13:43:27;3.95;;;1.50;;
39518;SDS011;25200;53.394;10.414;2023-08-21T13:45:53;3.20;;;1.30;;
39518;SDS011;25200;53.394;10.414;2023-08-21T13:48:18;3.47;;;1.40;;
39518;SDS011;25200;53.394;10.414;2023-08-21T13:50:44;3.85;;;1.30;;
39518;SDS011;25200;53.394;10.414;2023-08-21T13:53:10;4.03;;;1.42;;
39518;SDS011;25200;53.394;10.414;2023-08-21T13:55:36;5.40;;;1.33;;
39518;SDS011;25200;53.394;10.414;2023-08-21T13:58:02;4.30;;;1.25;;
39518;SDS011;25200;53.394;10.414;2023-08-21T14:00:28;3.45;;;1.33;;
39518;SDS011;25200;53.394;10.414;2023-08-21T14:02:53;4.10;;;1.35;;
39518;SDS011;25200;53.394;10.414;2023-08-21T14:05:19;3.50;;;1.27;;
39518;SDS011;25200;53.394;10.414;2023-08-21T14:07:44;3.50;;;1.25;;
39518;SDS011;25200;53.394;10.414;2023-08-21T14:10:10;3.33;;;1.30;;
39518;SDS011;25200;53.394;10.414;2023-08-21T14:12:39;3.78;;;1.40;;
39518;SDS011;25200;53.394;10.414;2023-08-21T14:15:05;4.70;;;1.42;;
39518;SDS011;25200;53.394;10.414;2023-08-21T14:17:31;3.72;;;1.48;;
39518;SDS011;25200;53.394;10.414;2023-08-21T14:19:56;4.40;;;1.40;;
39518;SDS011;25200;53.394;10.414;2023-08-21T14:22:22;3.58;;;1.60;;
39518;SDS011;25200;53.394;10.414;2023-08-21T14:24:48;2.38;;;1.30;;
39518;SDS011;25200;53.394;10.414;2023-08-21T14:27:14;4.05;;;1.40;;
39518;SDS011;25200;53.394;10.414;2023-08-21T14:29:41;4.55;;;1.60;;
39518;SDS011;25200;53.394;10.414;2023-08-21T14:32:09;5.25;;;1.50;;
39518;SDS011;25200;53.394;10.414;2023-08-21T14:34:35;4.30;;;1.38;;
39518;SDS011;25200;53.394;10.414;2023-08-21T14:37:01;3.20;;;1.30;;
39518;SDS011;25200;53.394;10.414;2023-08-21T14:39:29;5.00;;;1.48;;
39518;SDS011;25200;53.394;10.414;2023-08-21T14:41:57;5.35;;;1.48;;
39518;SDS011;25200;53.394;10.414;2023-08-21T14:44:24;4.15;;;1.50;;